Time;durP1;ratioP1;P1;durP2;ratioP2;P2;SDS_P1;SDS_P2;PMS_P1;PMS_P2;Temp;Humidity;BMP_temperature;BMP_pressure;BME280_temperature;BME280_humidity;BME280_pressure;Samples;Min_cycle;Max_cycle;Signal;HPM_P1;HPM_P2
2021/11/05 00:00:26;;;;;;;8.27;4.23;;;14.00;99.90;;;;;;4123447;28;20046;-66
2021/11/05 00:02:30;;;;;;;9.47;4.03;;;14.00;99.90;;;;;;4124314;28;20093;-67
2021/11/05 00:04:31;;;;;;;8.00;4.10;;;14.20;99.90;;;;;;4123027;28;20941;-67
2021/11/05 00:06:32;;;;;;;7.63;3.70;;;14.20;99.90;;;;;;4123311;28;20064;-67
2021/11/05 00:08:33;;;;;;;10.27;3.70;;;14.10;99.90;;;;;;4124655;28;20042;-64
2021/11/05 00:10:37;;;;;;;9.13;3.80;;;14.10;99.90;;;;;;4123801;28;20093;-65
2021/11/05 00:12:38;;;;;;;9.87;5.00;;;14.00;99.90;;;;;;4124820;28;20820;-67
2021/11/05 00:14:41;;;;;;;6.70;4.10;;;14.00;99.90;;;;;;4123546;28;20093;-66
2021/11/05 00:16:42;;;;;;;11.00;4.73;;;13.90;99.90;;;;;;4124873;28;20398;-68
2021/11/05 00:18:43;;;;;;;9.30;5.37;;;13.90;99.90;;;;;;4123657;28;20066;-67
2021/11/05 00:20:44;;;;;;;8.47;4.90;;;13.90;99.90;;;;;;4124773;28;20038;-64
2021/11/05 00:22:46;;;;;;;9.87;4.73;;;13.80;99.90;;;;;;4124974;28;20883;-66
2021/11/05 00:24:47;;;;;;;8.50;5.40;;;13.90;99.90;;;;;;4115746;28;20449;-66
2021/11/05 00:26:49;;;;;;;11.20;4.07;;;13.80;99.90;;;;;;4110784;28;20133;-65
2021/11/05 00:28:50;;;;;;;7.90;3.67;;;13.90;99.90;;;;;;4112542;28;20364;-67
2021/11/05 00:30:51;;;;;;;10.07;4.17;;;13.90;99.90;;;;;;4111070;28;20019;-66
2021/11/05 00:32:52;;;;;;;8.47;3.70;;;13.90;99.90;;;;;;4110560;28;20487;-67
2021/11/05 00:34:53;;;;;;;7.90;3.73;;;13.90;99.90;;;;;;4111133;28;20022;-65
2021/11/05 00:36:54;;;;;;;6.87;3.87;;;13.90;99.90;;;;;;4111542;28;20889;-66
2021/11/05 00:38:55;;;;;;;6.03;3.57;;;13.90;99.90;;;;;;4110946;28;20048;-64
2021/11/05 00:40:56;;;;;;;5.73;3.20;;;13.90;99.90;;;;;;4109893;28;20051;-65
2021/11/05 00:42:58;;;;;;;5.20;3.10;;;13.90;99.90;;;;;;4111720;28;20569;-65
2021/11/05 00:44:59;;;;;;;12.97;5.07;;;13.90;99.90;;;;;;4109872;28;20094;-68
2021/11/05 00:47:00;;;;;;;4.27;3.13;;;13.90;99.90;;;;;;4111647;28;20089;-68
2021/11/05 00:49:01;;;;;;;10.23;3.83;;;13.90;99.90;;;;;;4108654;28;20593;-65
2021/11/05 00:51:02;;;;;;;5.83;3.20;;;14.00;99.90;;;;;;4111270;28;20043;-67
2021/11/05 00:53:03;;;;;;;7.47;3.57;;;14.00;99.90;;;;;;4109990;28;20101;-66
2021/11/05 00:55:06;;;;;;;5.67;2.97;;;14.00;99.90;;;;;;4111127;28;20046;-67
2021/11/05 00:57:07;;;;;;;9.73;3.80;;;14.00;99.90;;;;;;4110934;28;20043;-67
2021/11/05 00:59:09;;;;;;;8.60;3.30;;;14.10;99.90;;;;;;4111140;28;20123;-65
2021/11/05 01:01:11;;;;;;;7.53;3.60;;;14.00;99.90;;;;;;4109549;28;20102;-65
2021/11/05 01:03:12;;;;;;;8.77;3.93;;;14.10;99.90;;;;;;4110440;28;20509;-65
2021/11/05 01:05:14;;;;;;;7.93;3.87;;;14.10;99.90;;;;;;4110764;28;20351;-67
2021/11/05 01:07:15;;;;;;;6.20;3.87;;;14.00;99.90;;;;;;4110542;28;20097;-67
2021/11/05 01:09:16;;;;;;;6.77;3.63;;;14.00;99.90;;;;;;4110858;28;20094;-65
2021/11/05 01:11:17;;;;;;;8.87;3.37;;;14.00;99.90;;;;;;4110507;28;20039;-69
2021/11/05 01:13:19;;;;;;;7.37;4.13;;;13.90;99.90;;;;;;4112099;28;20090;-64
2021/11/05 01:15:20;;;;;;;6.30;3.30;;;13.90;99.90;;;;;;4109639;28;20050;-68
2021/11/05 01:17:21;;;;;;;5.60;3.93;;;13.80;99.90;;;;;;4111123;28;20106;-67
2021/11/05 01:19:22;;;;;;;7.83;3.93;;;13.80;99.90;;;;;;4109837;28;20090;-67
2021/11/05 01:21:23;;;;;;;7.47;3.17;;;13.80;99.90;;;;;;4110786;28;20145;-70
2021/11/05 01:23:24;;;;;;;8.83;3.80;;;13.80;99.90;;;;;;4109265;28;20090;-65
2021/11/05 01:25:26;;;;;;;7.87;3.70;;;13.80;99.90;;;;;;4110791;28;20038;-67
2021/11/05 01:27:27;;;;;;;8.57;3.53;;;13.80;99.90;;;;;;4110970;28;20046;-67
2021/11/05 01:29:28;;;;;;;8.77;4.10;;;13.80;99.90;;;;;;4110480;28;20047;-63
2021/11/05 01:31:29;;;;;;;11.87;3.70;;;13.80;99.90;;;;;;4109790;28;20153;-68
2021/11/05 01:33:31;;;;;;;6.23;3.17;;;13.80;99.90;;;;;;4109885;28;20027;-66
2021/11/05 01:35:36;;;;;;;5.27;3.80;;;13.90;99.90;;;;;;4110085;28;20031;-65
2021/11/05 01:37:37;;;;;;;7.83;3.40;;;13.90;99.90;;;;;;4110624;28;20077;-66
2021/11/05 01:39:38;;;;;;;5.10;3.13;;;13.90;99.90;;;;;;4110057;28;20015;-66
2021/11/05 01:41:40;;;;;;;6.57;2.93;;;14.00;99.90;;;;;;4109270;28;20050;-66
2021/11/05 01:43:44;;;;;;;7.20;3.13;;;14.00;99.90;;;;;;4109778;28;20047;-66
2021/11/05 01:45:47;;;;;;;9.70;4.77;;;14.00;99.90;;;;;;4109659;28;20030;-65
2021/11/05 01:47:49;;;;;;;5.53;4.30;;;14.00;99.90;;;;;;4121343;28;20156;-65
2021/11/05 01:49:50;;;;;;;7.40;4.33;;;13.90;99.90;;;;;;4124563;28;20039;-65
2021/11/05 01:51:52;;;;;;;7.13;4.43;;;13.80;99.90;;;;;;4125546;28;20097;-63
2021/11/05 01:53:53;;;;;;;7.73;4.43;;;13.80;99.90;;;;;;4125515;28;20438;-68
2021/11/05 01:55:54;;;;;;;11.90;4.80;;;13.70;99.90;;;;;;4126092;28;20042;-64
2021/11/05 01:57:55;;;;;;;9.37;4.73;;;13.70;99.90;;;;;;4125222;28;20446;-64
2021/11/05 01:59:56;;;;;;;10.17;5.87;;;13.70;99.90;;;;;;4126518;28;20077;-63
2021/11/05 02:02:02;;;;;;;8.30;4.63;;;13.60;99.90;;;;;;4124802;28;20038;-64
2021/11/05 02:04:04;;;;;;;10.30;4.47;;;13.60;99.90;;;;;;4124742;28;20081;-68
2021/11/05 02:06:05;;;;;;;9.10;5.17;;;13.50;99.90;;;;;;4125303;28;20034;-66
2021/11/05 02:08:07;;;;;;;7.70;4.80;;;13.50;99.90;;;;;;4125896;28;20116;-64
2021/11/05 02:10:09;;;;;;;9.10;5.30;;;13.50;99.90;;;;;;4125390;28;20454;-64
2021/11/05 02:12:10;;;;;;;13.13;6.27;;;13.50;99.90;;;;;;4124433;28;20041;-68
2021/11/05 02:14:15;;;;;;;8.60;6.10;;;13.40;99.90;;;;;;4108519;28;20455;-66
2021/11/05 02:16:17;;;;;;;10.43;5.53;;;13.40;99.90;;;;;;4109345;28;20030;-68
2021/11/05 02:18:19;;;;;;;8.23;5.40;;;13.30;99.90;;;;;;4108369;28;21030;-68
2021/11/05 02:20:25;;;;;;;10.80;5.70;;;13.30;99.90;;;;;;4115953;28;20097;-67
2021/11/05 02:22:26;;;;;;;10.60;7.20;;;13.30;99.90;;;;;;4126286;28;20056;-66
2021/11/05 02:24:29;;;;;;;11.07;5.97;;;13.30;99.90;;;;;;4123901;28;20935;-65
2021/11/05 02:26:30;;;;;;;10.77;7.23;;;13.20;99.90;;;;;;4126092;28;20034;-64
2021/11/05 02:28:39;;;;;;;12.87;6.77;;;13.20;99.90;;;;;;4125255;28;20105;-65
2021/11/05 02:30:40;;;;;;;13.97;7.40;;;13.20;99.90;;;;;;4126367;28;20897;-64
2021/11/05 02:32:42;;;;;;;15.00;6.97;;;13.30;99.90;;;;;;4124668;28;20062;-65
2021/11/05 02:34:43;;;;;;;17.70;7.57;;;13.20;99.90;;;;;;4125432;28;20047;-65
2021/11/05 02:36:45;;;;;;;10.17;7.07;;;13.20;99.90;;;;;;4124942;28;20074;-64
2021/11/05 02:38:46;;;;;;;16.13;8.13;;;13.20;99.90;;;;;;4126071;28;20537;-66
2021/11/05 02:40:48;;;;;;;13.23;7.43;;;13.20;99.90;;;;;;4122223;28;20434;-63
2021/11/05 02:42:49;;;;;;;13.37;7.00;;;13.20;99.90;;;;;;4126021;28;20065;-66
2021/11/05 02:44:51;;;;;;;13.67;7.17;;;13.20;99.90;;;;;;4123865;28;20042;-65
2021/11/05 02:46:54;;;;;;;10.87;7.27;;;13.20;99.90;;;;;;4124802;28;20057;-66
2021/11/05 02:49:04;;;;;;;14.50;6.27;;;13.20;99.90;;;;;;4125199;28;20105;-65
2021/11/05 02:51:05;;;;;;;11.85;6.35;;;13.30;99.90;;;;;;4125326;28;20069;-66
2021/11/05 02:53:06;;;;;;;10.00;6.13;;;13.30;99.90;;;;;;4124520;28;20027;-68
2021/11/05 02:55:09;;;;;;;11.43;5.50;;;13.30;99.90;;;;;;4122261;28;20609;-67
2021/11/05 02:57:10;;;;;;;12.63;6.03;;;13.30;99.90;;;;;;4124675;28;20042;-66
2021/11/05 02:59:11;;;;;;;8.57;5.97;;;13.30;99.90;;;;;;4124306;28;20093;-65
2021/11/05 03:01:13;;;;;;;10.53;5.67;;;13.30;99.90;;;;;;4125269;28;20080;-65
2021/11/05 03:03:16;;;;;;;11.33;6.20;;;13.30;99.90;;;;;;4121491;28;20447;-66
2021/11/05 03:05:17;;;;;;;11.87;6.17;;;13.30;99.90;;;;;;4125431;28;20031;-64
2021/11/05 03:07:18;;;;;;;11.77;5.40;;;13.30;99.90;;;;;;4124092;28;20092;-64
2021/11/05 03:09:20;;;;;;;11.63;6.73;;;13.30;99.90;;;;;;4125669;28;20026;-64
2021/11/05 03:11:21;;;;;;;17.27;8.27;;;13.30;99.90;;;;;;4124124;28;20558;-65
2021/11/05 03:13:22;;;;;;;13.77;8.07;;;13.20;99.90;;;;;;4125040;28;20038;-67
2021/11/05 03:15:23;;;;;;;11.83;8.33;;;13.20;99.90;;;;;;4121463;28;20055;-67
2021/11/05 03:17:25;;;;;;;12.33;6.80;;;13.10;99.90;;;;;;4125511;28;20072;-69
2021/11/05 03:19:26;;;;;;;9.23;7.07;;;13.10;99.90;;;;;;4124266;28;20023;-65
2021/11/05 03:21:27;;;;;;;14.33;7.23;;;13.10;99.90;;;;;;4124653;28;20026;-65
2021/11/05 03:23:29;;;;;;;14.30;8.13;;;13.10;99.90;;;;;;4124655;28;20039;-66
2021/11/05 03:25:30;;;;;;;12.47;6.50;;;13.10;99.90;;;;;;4124064;28;20126;-65
2021/11/05 03:27:32;;;;;;;11.83;6.37;;;13.00;99.90;;;;;;4124578;28;20039;-64
2021/11/05 03:29:33;;;;;;;14.77;6.43;;;13.00;99.90;;;;;;4124041;28;20043;-66
2021/11/05 03:31:35;;;;;;;10.33;4.93;;;13.00;99.90;;;;;;4125077;28;20069;-68
2021/11/05 03:33:36;;;;;;;7.47;4.20;;;13.00;99.90;;;;;;4123908;28;20027;-66
2021/11/05 03:35:37;;;;;;;7.87;4.43;;;13.10;99.90;;;;;;4123595;28;20082;-68
2021/11/05 03:37:39;;;;;;;8.53;4.60;;;13.20;99.90;;;;;;4124052;28;20069;-64
2021/11/05 03:39:40;;;;;;;9.37;4.53;;;13.20;99.90;;;;;;4124995;28;20483;-67
2021/11/05 03:41:41;;;;;;;6.50;3.93;;;13.30;99.90;;;;;;4123562;28;20107;-68
2021/11/05 03:43:43;;;;;;;7.47;4.10;;;13.30;99.90;;;;;;4123903;28;20049;-67
2021/11/05 03:45:44;;;;;;;6.97;4.20;;;13.30;99.90;;;;;;4122959;28;20088;-66
2021/11/05 03:47:46;;;;;;;6.90;4.40;;;13.30;99.90;;;;;;4124500;28;20493;-67
2021/11/05 03:49:47;;;;;;;8.50;4.23;;;13.30;99.90;;;;;;4123471;28;20505;-68
2021/11/05 03:51:48;;;;;;;6.97;3.90;;;13.30;99.90;;;;;;4124337;28;20077;-66
2021/11/05 03:53:49;;;;;;;5.03;2.93;;;13.20;99.90;;;;;;4121898;28;20077;-65
2021/11/05 03:55:51;;;;;;;9.10;3.67;;;13.30;99.90;;;;;;4107784;28;20555;-66
2021/11/05 03:57:52;;;;;;;8.87;3.97;;;13.30;99.90;;;;;;4109301;28;20090;-64
2021/11/05 03:59:53;;;;;;;9.90;3.07;;;13.30;99.90;;;;;;4110815;28;20039;-66
2021/11/05 04:01:54;;;;;;;6.63;4.30;;;13.30;99.90;;;;;;4111627;28;20553;-65
2021/11/05 04:03:55;;;;;;;6.03;3.73;;;13.30;99.90;;;;;;4110600;28;20097;-65
2021/11/05 04:05:56;;;;;;;7.53;4.23;;;13.30;99.90;;;;;;4112041;28;20606;-68
2021/11/05 04:07:58;;;;;;;6.23;3.63;;;13.20;99.90;;;;;;4110361;28;20050;-67
2021/11/05 04:09:59;;;;;;;7.93;3.23;;;13.20;99.90;;;;;;4112105;28;20108;-69
2021/11/05 04:12:00;;;;;;;4.60;2.97;;;13.20;99.90;;;;;;4110283;28;20031;-69
2021/11/05 04:14:01;;;;;;;4.90;2.90;;;13.20;99.90;;;;;;4111433;28;20042;-65
2021/11/05 04:16:02;;;;;;;6.07;3.67;;;13.30;99.90;;;;;;4110500;28;20075;-65
2021/11/05 04:18:04;;;;;;;4.97;3.27;;;13.30;99.90;;;;;;4111304;28;20499;-70
2021/11/05 04:20:05;;;;;;;8.83;5.30;;;13.30;99.90;;;;;;4110379;28;20030;-66
2021/11/05 04:22:07;;;;;;;9.43;5.60;;;13.30;99.90;;;;;;4111160;28;20098;-67
2021/11/05 04:24:08;;;;;;;7.97;3.73;;;13.30;99.90;;;;;;4110181;28;20070;-66
2021/11/05 04:26:10;;;;;;;7.43;4.37;;;13.30;99.90;;;;;;4110626;28;20042;-69
2021/11/05 04:28:12;;;;;;;7.97;4.17;;;13.20;99.90;;;;;;4112227;28;20447;-66
2021/11/05 04:30:15;;;;;;;9.00;4.53;;;13.20;99.90;;;;;;4110064;28;20050;-66
2021/11/05 04:32:16;;;;;;;7.80;4.13;;;13.20;99.90;;;;;;4111400;28;20035;-65
2021/11/05 04:34:17;;;;;;;7.37;4.30;;;13.10;99.90;;;;;;4110299;28;20105;-65
2021/11/05 04:36:21;;;;;;;4.67;3.30;;;13.10;99.90;;;;;;4110863;28;20042;-67
2021/11/05 04:38:22;;;;;;;5.77;4.13;;;13.10;99.90;;;;;;4110259;28;20034;-68
2021/11/05 04:40:23;;;;;;;9.93;4.00;;;13.10;99.90;;;;;;4110861;28;20101;-70
2021/11/05 04:42:24;;;;;;;6.07;3.90;;;13.10;99.90;;;;;;4109621;28;20076;-68
2021/11/05 04:44:25;;;;;;;5.37;3.27;;;13.10;99.90;;;;;;4111278;28;20034;-66
2021/11/05 04:46:27;;;;;;;7.57;3.70;;;13.20;99.90;;;;;;4110656;28;20847;-65
2021/11/05 04:48:28;;;;;;;6.33;3.00;;;13.20;99.90;;;;;;4110749;28;20047;-66
2021/11/05 04:50:29;;;;;;;3.83;2.47;;;13.20;99.90;;;;;;4109221;28;20058;-68
2021/11/05 04:52:30;;;;;;;4.83;2.80;;;13.20;99.90;;;;;;4111127;28;20038;-65
2021/11/05 04:54:31;;;;;;;6.47;2.17;;;13.20;99.90;;;;;;4110071;28;20447;-66
2021/11/05 04:56:34;;;;;;;2.37;1.90;;;13.30;99.90;;;;;;4110092;28;20039;-66
2021/11/05 04:58:35;;;;;;;3.43;2.00;;;13.30;99.90;;;;;;4110974;28;20450;-67
2021/11/05 05:00:36;;;;;;;5.80;3.33;;;13.30;99.90;;;;;;4114528;28;20454;-65
2021/11/05 05:02:38;;;;;;;5.40;3.30;;;13.30;99.90;;;;;;4110316;28;20101;-67
2021/11/05 05:04:39;;;;;;;6.53;3.30;;;13.20;99.90;;;;;;4109971;28;20038;-65
2021/11/05 05:06:40;;;;;;;4.83;2.87;;;13.20;99.90;;;;;;4113502;28;20089;-68
2021/11/05 05:08:42;;;;;;;5.13;3.50;;;13.10;99.90;;;;;;4123771;28;20050;-66
2021/11/05 05:10:43;;;;;;;6.87;3.50;;;13.10;99.90;;;;;;4126478;28;20092;-66
2021/11/05 05:12:44;;;;;;;6.70;3.93;;;13.10;99.90;;;;;;4126095;28;20533;-66
2021/11/05 05:14:45;;;;;;;3.97;3.37;;;13.10;99.90;;;;;;4126598;28;20038;-63
2021/11/05 05:16:47;;;;;;;8.33;3.80;;;13.00;99.90;;;;;;4124470;28;20050;-64
2021/11/05 05:18:48;;;;;;;6.30;3.87;;;13.00;99.90;;;;;;4127004;28;20530;-64
2021/11/05 05:20:50;;;;;;;8.57;4.23;;;13.00;99.90;;;;;;4125611;28;20050;-64
2021/11/05 05:22:51;;;;;;;6.10;4.03;;;13.10;99.90;;;;;;4127131;28;20026;-67
2021/11/05 05:24:52;;;;;;;3.70;2.93;;;13.10;99.90;;;;;;4125233;28;20030;-66
2021/11/05 05:26:53;;;;;;;6.20;3.50;;;13.10;99.90;;;;;;4126184;28;20034;-65
2021/11/05 05:28:54;;;;;;;4.40;3.20;;;13.20;99.90;;;;;;4125698;28;20054;-65
2021/11/05 05:30:55;;;;;;;6.13;3.60;;;13.20;99.90;;;;;;4125959;28;20097;-65
2021/11/05 05:32:57;;;;;;;5.20;3.30;;;13.20;99.90;;;;;;4126260;28;20092;-65
2021/11/05 05:34:58;;;;;;;6.23;4.70;;;13.10;99.90;;;;;;4124913;28;20030;-66
2021/11/05 05:36:59;;;;;;;8.90;4.13;;;13.10;99.90;;;;;;4126434;28;20092;-65
2021/11/05 05:39:01;;;;;;;5.63;3.23;;;13.20;99.90;;;;;;4124627;28;20482;-66
2021/11/05 05:41:04;;;;;;;7.87;3.97;;;13.20;99.90;;;;;;4125448;28;20054;-64
2021/11/05 05:43:05;;;;;;;6.90;3.97;;;13.20;99.90;;;;;;4125518;28;20372;-68
2021/11/05 05:45:07;;;;;;;4.97;3.37;;;13.30;99.90;;;;;;4126460;28;20084;-65
2021/11/05 05:47:08;;;;;;;9.60;5.97;;;13.30;99.90;;;;;;4124975;28;20034;-65
2021/11/05 05:49:09;;;;;;;7.13;4.60;;;13.30;99.90;;;;;;4125120;28;20368;-64
2021/11/05 05:51:10;;;;;;;7.47;4.13;;;13.30;99.90;;;;;;4124259;28;20497;-68
2021/11/05 05:53:12;;;;;;;12.07;6.07;;;13.20;99.90;;;;;;4121968;28;20097;-66
2021/11/05 05:55:15;;;;;;;22.80;11.83;;;13.20;99.90;;;;;;4124295;28;20042;-65
2021/11/05 05:57:16;;;;;;;18.57;11.23;;;13.20;99.90;;;;;;4125252;28;20042;-64
2021/11/05 05:59:19;;;;;;;19.13;8.20;;;13.20;99.90;;;;;;4124445;28;20100;-65
2021/11/05 06:01:21;;;;;;;14.10;5.50;;;13.20;99.90;;;;;;4124304;28;20644;-68
2021/11/05 06:03:22;;;;;;;9.10;5.50;;;13.20;99.90;;;;;;4125393;28;20034;-64
2021/11/05 06:05:23;;;;;;;10.97;6.90;;;13.20;99.90;;;;;;4123814;28;20038;-67
2021/11/05 06:07:24;;;;;;;8.90;6.23;;;13.20;99.90;;;;;;4124805;28;20038;-65
2021/11/05 06:09:25;;;;;;;9.60;6.73;;;13.20;99.90;;;;;;4122375;28;20054;-65
2021/11/05 06:11:26;;;;;;;13.20;7.60;;;13.20;99.90;;;;;;4125147;28;20046;-65
2021/11/05 06:13:28;;;;;;;11.13;7.10;;;13.20;99.90;;;;;;4122542;28;20042;-65
2021/11/05 06:15:30;;;;;;;10.70;6.30;;;13.20;99.90;;;;;;4124504;28;20171;-63
2021/11/05 06:17:31;;;;;;;12.97;7.07;;;13.20;99.90;;;;;;4123691;28;20562;-65
2021/11/05 06:19:34;;;;;;;12.17;7.03;;;13.20;99.90;;;;;;4124891;28;20042;-66
2021/11/05 06:21:35;;;;;;;15.73;6.60;;;13.20;99.90;;;;;;4123623;28;20050;-64
2021/11/05 06:23:36;;;;;;;11.00;6.00;;;13.20;99.90;;;;;;4125748;28;20039;-67
2021/11/05 06:25:38;;;;;;;14.77;6.60;;;13.30;99.90;;;;;;4123904;28;20893;-65
2021/11/05 06:27:39;;;;;;;13.97;6.23;;;13.30;99.90;;;;;;4125107;28;20486;-67
2021/11/05 06:29:40;;;;;;;8.00;3.83;;;13.40;99.90;;;;;;4124633;28;20050;-65
2021/11/05 06:31:42;;;;;;;9.50;5.93;;;13.40;99.90;;;;;;4124750;28;20052;-66
2021/11/05 06:33:43;;;;;;;9.47;4.47;;;13.40;99.90;;;;;;4125117;28;20116;-64
2021/11/05 06:35:46;;;;;;;10.63;5.07;;;13.40;99.90;;;;;;4124371;28;20093;-65
2021/11/05 06:37:48;;;;;;;13.20;6.33;;;13.40;99.90;;;;;;4125306;28;20450;-66
2021/11/05 06:39:49;;;;;;;19.17;8.70;;;13.40;99.90;;;;;;4123998;28;20026;-67
2021/11/05 06:41:51;;;;;;;15.73;6.73;;;13.40;99.90;;;;;;4125003;28;20058;-67
2021/11/05 06:43:53;;;;;;;9.43;5.03;;;13.30;99.90;;;;;;4124191;28;20050;-66
2021/11/05 06:45:55;;;;;;;7.47;4.90;;;13.30;99.90;;;;;;4124931;28;20582;-67
2021/11/05 06:47:57;;;;;;;7.90;5.37;;;13.30;99.90;;;;;;4124016;28;20360;-65
2021/11/05 06:49:58;;;;;;;8.80;5.83;;;13.30;99.90;;;;;;4125286;28;20038;-65
2021/11/05 06:51:59;;;;;;;10.73;5.20;;;13.30;99.90;;;;;;4124061;28;20316;-65
2021/11/05 06:54:00;;;;;;;12.50;5.63;;;13.30;99.90;;;;;;4125066;28;20104;-66
2021/11/05 06:56:02;;;;;;;8.07;3.80;;;13.30;99.90;;;;;;4123521;28;20100;-65
2021/11/05 06:58:04;;;;;;;5.67;3.50;;;13.30;99.90;;;;;;4124553;28;20100;-66
2021/11/05 07:00:08;;;;;;;8.10;3.90;;;13.30;99.90;;;;;;4122843;28;20038;-66
2021/11/05 07:02:10;;;;;;;7.67;3.93;;;13.30;99.90;;;;;;4124227;28;20057;-66
2021/11/05 07:04:11;;;;;;;7.77;3.30;;;13.30;99.90;;;;;;4124402;28;20364;-66
2021/11/05 07:06:12;;;;;;;6.10;4.10;;;13.30;99.90;;;;;;4124059;28;20051;-65
2021/11/05 07:08:13;;;;;;;6.00;3.47;;;13.40;99.90;;;;;;4124331;28;20537;-65
2021/11/05 07:10:14;;;;;;;3.97;3.47;;;13.40;99.90;;;;;;4123399;28;20058;-66
2021/11/05 07:12:16;;;;;;;9.40;4.07;;;13.40;99.90;;;;;;4124707;28;20026;-63
2021/11/05 07:14:17;;;;;;;6.30;3.27;;;13.40;99.90;;;;;;4123320;28;20404;-66
2021/11/05 07:16:18;;;;;;;8.73;4.10;;;13.50;99.90;;;;;;4124896;28;20030;-65
2021/11/05 07:18:20;;;;;;;6.90;4.53;;;13.50;99.90;;;;;;4121922;28;20465;-65
2021/11/05 07:20:22;;;;;;;8.43;4.43;;;13.50;99.90;;;;;;4125115;28;20034;-65
2021/11/05 07:22:24;;;;;;;9.37;4.73;;;13.50;99.90;;;;;;4123258;28;21022;-65
2021/11/05 07:24:27;;;;;;;10.27;4.03;;;13.50;99.90;;;;;;4124356;28;20046;-65
2021/11/05 07:26:34;;;;;;;6.50;3.80;;;13.50;99.90;;;;;;4123811;28;20101;-65
2021/11/05 07:28:35;;;;;;;6.50;3.20;;;13.50;99.90;;;;;;4124755;28;20080;-64
2021/11/05 07:30:37;;;;;;;6.83;4.13;;;13.50;99.90;;;;;;4123709;28;20093;-64
2021/11/05 07:32:44;;;;;;;8.83;3.70;;;13.60;99.90;;;;;;4124215;28;20038;-65
2021/11/05 07:34:48;;;;;;;10.83;4.60;;;13.50;99.90;;;;;;4123524;28;20030;-65
2021/11/05 07:36:49;;;;;;;10.33;5.07;;;13.60;99.90;;;;;;4124323;28;20027;-65
2021/11/05 07:38:50;;;;;;;12.33;6.60;;;13.60;99.90;;;;;;4124135;28;20035;-66
2021/11/05 07:40:52;;;;;;;15.00;7.33;;;13.60;99.90;;;;;;4123584;28;20065;-66
2021/11/05 07:42:53;;;;;;;14.53;8.40;;;13.60;99.90;;;;;;4124805;28;20050;-65
2021/11/05 07:44:54;;;;;;;11.30;7.40;;;13.60;99.90;;;;;;4123363;28;20023;-66
2021/11/05 07:46:55;;;;;;;9.20;6.37;;;13.60;99.90;;;;;;4124823;28;20026;-66
2021/11/05 07:48:57;;;;;;;9.67;5.60;;;13.60;99.90;;;;;;4123200;28;20144;-64
2021/11/05 07:50:58;;;;;;;11.50;7.83;;;13.70;99.90;;;;;;4124600;28;20026;-65
2021/11/05 07:53:01;;;;;;;13.20;7.23;;;13.70;99.90;;;;;;4123574;28;20713;-65
2021/11/05 07:55:04;;;;;;;12.13;5.67;;;13.70;99.90;;;;;;4124402;28;20089;-65
2021/11/05 07:57:05;;;;;;;7.30;4.20;;;13.70;99.90;;;;;;4123083;28;20553;-66
2021/11/05 07:59:07;;;;;;;8.67;3.90;;;13.80;99.90;;;;;;4124890;28;20093;-65
2021/11/05 08:01:08;;;;;;;6.10;3.50;;;13.80;99.90;;;;;;4123495;28;20101;-65
2021/11/05 08:03:10;;;;;;;7.83;3.33;;;13.70;99.90;;;;;;4123886;28;20069;-66
2021/11/05 08:05:11;;;;;;;6.43;4.67;;;13.80;99.90;;;;;;4123296;28;20026;-65
2021/11/05 08:07:12;;;;;;;11.63;5.87;;;13.80;99.90;;;;;;4124548;28;20500;-65
2021/11/05 08:09:13;;;;;;;16.53;7.43;;;13.90;99.90;;;;;;4123267;28;20048;-65
2021/11/05 08:11:15;;;;;;;15.83;7.43;;;13.90;99.90;;;;;;4122610;28;20038;-66
2021/11/05 08:13:16;;;;;;;13.87;7.30;;;13.90;99.90;;;;;;4123618;28;20026;-64
2021/11/05 08:15:18;;;;;;;11.63;7.30;;;13.90;99.90;;;;;;4123095;28;20447;-66
2021/11/05 08:17:20;;;;;;;11.87;7.37;;;13.90;99.90;;;;;;4123893;28;20085;-65
2021/11/05 08:19:21;;;;;;;11.27;6.90;;;13.90;99.90;;;;;;4122718;28;20426;-64
2021/11/05 08:21:22;;;;;;;11.17;6.60;;;13.90;99.90;;;;;;4123863;28;20027;-65
2021/11/05 08:23:23;;;;;;;13.70;7.73;;;13.90;99.90;;;;;;4122601;28;20030;-64
2021/11/05 08:25:28;;;;;;;13.07;7.27;;;14.00;99.90;;;;;;4124001;28;20035;-67
2021/11/05 08:27:29;;;;;;;11.57;7.57;;;14.00;99.90;;;;;;4122652;28;20027;-67
2021/11/05 08:29:31;;;;;;;12.47;7.87;;;14.00;99.90;;;;;;4124682;28;20030;-66
2021/11/05 08:31:33;;;;;;;15.83;9.90;;;14.10;99.90;;;;;;4123044;28;20038;-66
2021/11/05 08:33:35;;;;;;;19.40;8.00;;;14.10;99.90;;;;;;4124107;28;20141;-66
2021/11/05 08:35:38;;;;;;;11.77;7.53;;;14.20;99.90;;;;;;4122709;28;20105;-65
2021/11/05 08:37:39;;;;;;;23.83;11.90;;;14.20;99.90;;;;;;4123579;28;20545;-67
2021/11/05 08:39:40;;;;;;;16.87;8.77;;;14.30;99.90;;;;;;4122607;28;20080;-65
2021/11/05 08:41:42;;;;;;;20.13;8.37;;;14.40;99.90;;;;;;4123117;28;20446;-66
2021/11/05 08:43:46;;;;;;;15.20;9.70;;;14.50;99.90;;;;;;4124155;28;20030;-65
2021/11/05 08:45:47;;;;;;;23.90;11.30;;;14.60;99.90;;;;;;4126142;28;20093;-65
2021/11/05 08:47:48;;;;;;;15.03;9.40;;;14.70;99.90;;;;;;4126126;28;20034;-67
2021/11/05 08:49:53;;;;;;;18.70;10.27;;;14.70;99.90;;;;;;4124834;28;20358;-67
2021/11/05 08:51:54;;;;;;;16.65;10.90;;;14.80;99.90;;;;;;4126547;28;20756;-66
2021/11/05 08:53:56;;;;;;;17.05;9.60;;;14.80;99.90;;;;;;4125505;28;20046;-66
2021/11/05 08:55:57;;;;;;;15.50;10.82;;;14.90;99.90;;;;;;4126271;28;20466;-65
2021/11/05 08:57:58;;;;;;;12.73;9.00;;;14.90;99.90;;;;;;4124729;28;20042;-65
2021/11/05 09:00:00;;;;;;;14.40;10.10;;;14.90;99.90;;;;;;4126285;28;20120;-64
2021/11/05 09:02:02;;;;;;;13.75;9.30;;;15.00;99.90;;;;;;4124714;28;20104;-64
2021/11/05 09:04:04;;;;;;;13.73;9.13;;;15.10;99.90;;;;;;4125781;28;20089;-65
2021/11/05 09:06:05;;;;;;;11.45;7.28;;;15.10;99.90;;;;;;4124329;28;20895;-64
2021/11/05 09:08:07;;;;;;;12.52;8.05;;;15.10;99.90;;;;;;4126007;28;20034;-65
2021/11/05 09:10:10;;;;;;;11.68;7.80;;;15.10;99.90;;;;;;4124299;28;20046;-67
2021/11/05 09:12:11;;;;;;;12.77;7.65;;;15.10;99.90;;;;;;4126201;28;20044;-66
2021/11/05 09:14:12;;;;;;;23.00;6.28;;;15.10;99.90;;;;;;4124797;28;20606;-66
2021/11/05 09:16:13;;;;;;;11.05;5.35;;;15.10;99.90;;;;;;4125080;28;20488;-65
2021/11/05 09:18:15;;;;;;;7.75;3.88;;;15.10;99.90;;;;;;4125559;28;20030;-66
2021/11/05 09:20:17;;;;;;;8.55;4.07;;;15.10;99.90;;;;;;4124998;28;20104;-65
2021/11/05 09:22:19;;;;;;;8.70;3.25;;;15.00;99.90;;;;;;4126146;28;20950;-66
2021/11/05 09:24:20;;;;;;;5.53;3.72;;;15.00;99.90;;;;;;4124721;28;20111;-65
2021/11/05 09:26:23;;;;;;;3.30;2.80;;;14.90;99.90;;;;;;4126088;28;20018;-66
2021/11/05 09:28:26;;;;;;;5.32;3.30;;;14.90;99.90;;;;;;4123817;28;20042;-65
2021/11/05 09:30:28;;;;;;;9.23;3.70;;;14.80;99.90;;;;;;4126472;28;20468;-65
2021/11/05 09:32:29;;;;;;;7.95;4.28;;;14.80;99.90;;;;;;4124340;28;20054;-65
2021/11/05 09:34:33;;;;;;;6.60;4.40;;;14.80;99.90;;;;;;4125646;28;20042;-65
2021/11/05 09:36:34;;;;;;;4.85;3.70;;;14.80;99.90;;;;;;4124857;28;20038;-65
2021/11/05 09:38:35;;;;;;;8.93;3.65;;;14.80;99.90;;;;;;4125978;28;20038;-65
2021/11/05 09:40:37;;;;;;;4.47;3.70;;;14.90;99.90;;;;;;4123736;28;20038;-66
2021/11/05 09:42:41;;;;;;;7.75;3.90;;;14.90;99.90;;;;;;4125444;28;20053;-65
2021/11/05 09:44:43;;;;;;;8.77;4.53;;;14.90;99.90;;;;;;4124756;28;20034;-66
2021/11/05 09:46:45;;;;;;;5.20;4.00;;;14.90;99.90;;;;;;4125598;28;20034;-65
2021/11/05 09:48:48;;;;;;;6.43;4.28;;;14.90;99.90;;;;;;4125011;28;20022;-66
2021/11/05 09:50:49;;;;;;;5.25;4.05;;;15.00;99.90;;;;;;4125244;28;20078;-65
2021/11/05 09:52:51;;;;;;;8.10;3.58;;;15.10;99.90;;;;;;4124808;28;20483;-67
2021/11/05 09:54:53;;;;;;;6.32;3.78;;;15.10;99.90;;;;;;4123981;28;20042;-68
2021/11/05 09:56:55;;;;;;;6.32;3.70;;;15.20;99.90;;;;;;4125236;28;20050;-64
2021/11/05 09:58:56;;;;;;;7.38;3.58;;;15.30;99.90;;;;;;4124133;28;20042;-66
2021/11/05 10:00:57;;;;;;;5.80;3.80;;;15.40;99.90;;;;;;4123783;28;20138;-66
2021/11/05 10:02:58;;;;;;;6.18;3.67;;;15.50;99.90;;;;;;4124404;28;20089;-65
2021/11/05 10:05:01;;;;;;;6.88;4.55;;;15.50;99.90;;;;;;4125699;28;20030;-66
2021/11/05 10:07:05;;;;;;;11.55;6.82;;;15.60;99.90;;;;;;4123762;28;20034;-65
2021/11/05 10:09:14;;;;;;;7.00;5.72;;;15.60;99.90;;;;;;4124458;28;20098;-65
2021/11/05 10:11:25;;;;;;;10.32;5.85;;;15.60;99.90;;;;;;4123784;28;20042;-66
2021/11/05 10:13:27;;;;;;;12.98;6.15;;;15.60;99.90;;;;;;4123743;28;20042;-65
2021/11/05 10:15:41;;;;;;;10.93;6.68;;;15.60;99.90;;;;;;4124149;28;20108;-64
2021/11/05 10:17:42;;;;;;;7.18;6.38;;;15.60;99.90;;;;;;4125224;28;20030;-67
2021/11/05 10:19:55;;;;;;;11.50;6.50;;;15.60;99.90;;;;;;4124073;28;20038;-65
2021/11/05 10:21:56;;;;;;;9.75;7.32;;;15.60;99.90;;;;;;4125016;28;20038;-66
2021/11/05 10:24:13;;;;;;;12.80;8.65;;;15.70;99.90;;;;;;4123759;28;20110;-66
2021/11/05 10:26:27;;;;;;;12.45;7.50;;;15.60;99.90;;;;;;4125437;28;20914;-65
2021/11/05 10:28:29;;;;;;;11.95;7.68;;;15.60;99.90;;;;;;4123452;28;20568;-66
2021/11/05 10:30:31;;;;;;;14.65;8.13;;;15.60;99.90;;;;;;4125669;28;20038;-66